sensor_id;sensor_type;location;lat;lon;timestamp;P1;durP1;ratioP1;P2;durP2;ratioP2
6077;SDS011;3067;49.470;10.394;2023-09-19T00:00:25;1.07;;;1.00;;
6077;SDS011;3067;49.470;10.394;2023-09-19T00:02:53;1.30;;;1.30;;
6077;SDS011;3067;49.470;10.394;2023-09-19T00:05:23;1.30;;;1.20;;
6077;SDS011;3067;49.470;10.394;2023-09-19T00:07:53;1.90;;;1.10;;
6077;SDS011;3067;49.470;10.394;2023-09-19T00:10:21;1.80;;;1.07;;
6077;SDS011;3067;49.470;10.394;2023-09-19T00:12:50;0.90;;;0.90;;
6077;SDS011;3067;49.470;10.394;2023-09-19T00:15:18;1.20;;;1.10;;
6077;SDS011;3067;49.470;10.394;2023-09-19T00:17:46;2.17;;;1.20;;
6077;SDS011;3067;49.470;10.394;2023-09-19T00:20:13;0.90;;;0.80;;
6077;SDS011;3067;49.470;10.394;2023-09-19T00:22:44;2.67;;;1.07;;
6077;SDS011;3067;49.470;10.394;2023-09-19T00:25:11;2.30;;;1.33;;
6077;SDS011;3067;49.470;10.394;2023-09-19T00:27:40;1.00;;;1.00;;
6077;SDS011;3067;49.470;10.394;2023-09-19T00:30:10;0.97;;;0.97;;
6077;SDS011;3067;49.470;10.394;2023-09-19T00:32:41;3.10;;;1.00;;
6077;SDS011;3067;49.470;10.394;2023-09-19T00:35:08;1.40;;;0.83;;
6077;SDS011;3067;49.470;10.394;2023-09-19T00:37:36;4.47;;;1.10;;
6077;SDS011;3067;49.470;10.394;2023-09-19T00:40:07;3.00;;;1.07;;
6077;SDS011;3067;49.470;10.394;2023-09-19T00:42:37;1.23;;;1.00;;
6077;SDS011;3067;49.470;10.394;2023-09-19T00:45:06;4.73;;;1.17;;
6077;SDS011;3067;49.470;10.394;2023-09-19T00:47:36;2.50;;;1.03;;
6077;SDS011;3067;49.470;10.394;2023-09-19T00:50:03;0.90;;;0.90;;
6077;SDS011;3067;49.470;10.394;2023-09-19T00:52:33;1.10;;;1.00;;
6077;SDS011;3067;49.470;10.394;2023-09-19T00:55:04;2.33;;;0.90;;
6077;SDS011;3067;49.470;10.394;2023-09-19T00:57:33;3.40;;;1.10;;
6077;SDS011;3067;49.470;10.394;2023-09-19T01:00:03;1.00;;;0.90;;
6077;SDS011;3067;49.470;10.394;2023-09-19T01:02:33;0.97;;;0.97;;
6077;SDS011;3067;49.470;10.394;2023-09-19T01:05:02;1.07;;;1.00;;
6077;SDS011;3067;49.470;10.394;2023-09-19T01:07:31;2.37;;;1.03;;
6077;SDS011;3067;49.470;10.394;2023-09-19T01:09:59;1.00;;;1.00;;
6077;SDS011;3067;49.470;10.394;2023-09-19T01:12:33;1.33;;;0.90;;
6077;SDS011;3067;49.470;10.394;2023-09-19T01:15:11;0.90;;;0.90;;
6077;SDS011;3067;49.470;10.394;2023-09-19T01:17:43;0.97;;;0.97;;
6077;SDS011;3067;49.470;10.394;2023-09-19T01:20:20;0.90;;;0.90;;
6077;SDS011;3067;49.470;10.394;2023-09-19T01:23:00;0.80;;;0.80;;
6077;SDS011;3067;49.470;10.394;2023-09-19T01:25:42;1.83;;;1.00;;
6077;SDS011;3067;49.470;10.394;2023-09-19T01:28:45;1.67;;;1.13;;
6077;SDS011;3067;49.470;10.394;2023-09-19T01:31:24;2.20;;;1.00;;
6077;SDS011;3067;49.470;10.394;2023-09-19T01:33:59;2.40;;;1.20;;
6077;SDS011;3067;49.470;10.394;2023-09-19T01:36:29;1.20;;;1.10;;
6077;SDS011;3067;49.470;10.394;2023-09-19T01:38:59;1.37;;;1.10;;
6077;SDS011;3067;49.470;10.394;2023-09-19T01:41:34;1.93;;;0.90;;
6077;SDS011;3067;49.470;10.394;2023-09-19T01:44:09;1.10;;;1.00;;
6077;SDS011;3067;49.470;10.394;2023-09-19T01:46:44;1.00;;;1.00;;
6077;SDS011;3067;49.470;10.394;2023-09-19T01:49:15;2.50;;;1.10;;
6077;SDS011;3067;49.470;10.394;2023-09-19T01:51:53;0.70;;;0.70;;
6077;SDS011;3067;49.470;10.394;2023-09-19T01:54:30;3.13;;;1.40;;
6077;SDS011;3067;49.470;10.394;2023-09-19T01:57:05;1.33;;;1.17;;
6077;SDS011;3067;49.470;10.394;2023-09-19T01:59:41;1.23;;;0.90;;
6077;SDS011;3067;49.470;10.394;2023-09-19T02:02:13;3.13;;;1.47;;
6077;SDS011;3067;49.470;10.394;2023-09-19T02:04:42;1.87;;;1.30;;
6077;SDS011;3067;49.470;10.394;2023-09-19T02:07:09;2.50;;;1.00;;
6077;SDS011;3067;49.470;10.394;2023-09-19T02:09:37;1.50;;;1.07;;
6077;SDS011;3067;49.470;10.394;2023-09-19T02:12:05;1.40;;;1.20;;
6077;SDS011;3067;49.470;10.394;2023-09-19T02:14:33;2.70;;;1.20;;
6077;SDS011;3067;49.470;10.394;2023-09-19T02:17:01;2.87;;;1.10;;
6077;SDS011;3067;49.470;10.394;2023-09-19T02:19:32;2.60;;;1.10;;
6077;SDS011;3067;49.470;10.394;2023-09-19T02:21:59;2.70;;;1.20;;
6077;SDS011;3067;49.470;10.394;2023-09-19T02:24:28;1.37;;;1.10;;
6077;SDS011;3067;49.470;10.394;2023-09-19T02:26:56;1.40;;;1.30;;
6077;SDS011;3067;49.470;10.394;2023-09-19T02:29:24;1.40;;;1.20;;
6077;SDS011;3067;49.470;10.394;2023-09-19T02:31:52;1.27;;;1.27;;
6077;SDS011;3067;49.470;10.394;2023-09-19T02:34:21;1.20;;;1.10;;
6077;SDS011;3067;49.470;10.394;2023-09-19T02:36:50;1.17;;;1.17;;
6077;SDS011;3067;49.470;10.394;2023-09-19T02:39:18;1.23;;;1.13;;
6077;SDS011;3067;49.470;10.394;2023-09-19T02:41:46;1.10;;;1.10;;
6077;SDS011;3067;49.470;10.394;2023-09-19T02:44:13;3.53;;;1.10;;
6077;SDS011;3067;49.470;10.394;2023-09-19T02:46:40;1.83;;;1.33;;
6077;SDS011;3067;49.470;10.394;2023-09-19T02:49:07;2.00;;;1.30;;
6077;SDS011;3067;49.470;10.394;2023-09-19T02:51:34;1.50;;;1.40;;
6077;SDS011;3067;49.470;10.394;2023-09-19T02:54:04;1.30;;;1.20;;
6077;SDS011;3067;49.470;10.394;2023-09-19T02:56:31;2.30;;;1.13;;
6077;SDS011;3067;49.470;10.394;2023-09-19T02:58:58;3.73;;;1.47;;
6077;SDS011;3067;49.470;10.394;2023-09-19T03:01:26;3.50;;;1.30;;
6077;SDS011;3067;49.470;10.394;2023-09-19T03:03:54;3.30;;;1.27;;
6077;SDS011;3067;49.470;10.394;2023-09-19T03:06:21;1.50;;;1.40;;
6077;SDS011;3067;49.470;10.394;2023-09-19T03:08:49;3.33;;;1.13;;
6077;SDS011;3067;49.470;10.394;2023-09-19T03:11:18;1.73;;;1.47;;
6077;SDS011;3067;49.470;10.394;2023-09-19T03:13:50;1.10;;;1.10;;
6077;SDS011;3067;49.470;10.394;2023-09-19T03:16:18;1.77;;;1.50;;
6077;SDS011;3067;49.470;10.394;2023-09-19T03:18:46;2.40;;;1.43;;
6077;SDS011;3067;49.470;10.394;2023-09-19T03:21:14;1.60;;;1.30;;
6077;SDS011;3067;49.470;10.394;2023-09-19T03:23:42;4.83;;;1.50;;
6077;SDS011;3067;49.470;10.394;2023-09-19T03:26:11;1.63;;;1.30;;
6077;SDS011;3067;49.470;10.394;2023-09-19T03:28:41;1.40;;;1.30;;
6077;SDS011;3067;49.470;10.394;2023-09-19T03:31:09;1.40;;;1.30;;
6077;SDS011;3067;49.470;10.394;2023-09-19T03:33:36;1.67;;;1.30;;
6077;SDS011;3067;49.470;10.394;2023-09-19T03:36:03;2.40;;;1.77;;
6077;SDS011;3067;49.470;10.394;2023-09-19T03:38:32;3.07;;;1.30;;
6077;SDS011;3067;49.470;10.394;2023-09-19T03:41:00;2.03;;;1.47;;
6077;SDS011;3067;49.470;10.394;2023-09-19T03:43:27;1.23;;;1.17;;
6077;SDS011;3067;49.470;10.394;2023-09-19T03:45:55;1.47;;;1.37;;
6077;SDS011;3067;49.470;10.394;2023-09-19T03:48:23;1.43;;;1.43;;
6077;SDS011;3067;49.470;10.394;2023-09-19T03:50:50;1.63;;;1.53;;
6077;SDS011;3067;49.470;10.394;2023-09-19T03:53:17;1.57;;;1.57;;
6077;SDS011;3067;49.470;10.394;2023-09-19T03:55:45;3.23;;;1.20;;
6077;SDS011;3067;49.470;10.394;2023-09-19T03:58:12;2.70;;;1.90;;
6077;SDS011;3067;49.470;10.394;2023-09-19T04:00:39;1.43;;;1.33;;
6077;SDS011;3067;49.470;10.394;2023-09-19T04:03:08;4.33;;;1.37;;
6077;SDS011;3067;49.470;10.394;2023-09-19T04:05:43;1.53;;;1.43;;
6077;SDS011;3067;49.470;10.394;2023-09-19T04:08:11;5.20;;;1.60;;
6077;SDS011;3067;49.470;10.394;2023-09-19T04:10:40;4.00;;;1.50;;
6077;SDS011;3067;49.470;10.394;2023-09-19T04:13:08;1.67;;;1.57;;
6077;SDS011;3067;49.470;10.394;2023-09-19T04:15:35;1.13;;;1.13;;
6077;SDS011;3067;49.470;10.394;2023-09-19T04:18:03;4.70;;;1.80;;
6077;SDS011;3067;49.470;10.394;2023-09-19T04:20:32;1.77;;;1.50;;
6077;SDS011;3067;49.470;10.394;2023-09-19T04:22:59;4.63;;;1.50;;
6077;SDS011;3067;49.470;10.394;2023-09-19T04:25:26;1.50;;;1.40;;
6077;SDS011;3067;49.470;10.394;2023-09-19T04:27:53;1.63;;;1.50;;
6077;SDS011;3067;49.470;10.394;2023-09-19T04:30:20;3.03;;;1.40;;
6077;SDS011;3067;49.470;10.394;2023-09-19T04:32:47;2.60;;;1.50;;
6077;SDS011;3067;49.470;10.394;2023-09-19T04:35:16;1.60;;;1.50;;
6077;SDS011;3067;49.470;10.394;2023-09-19T04:37:44;1.60;;;1.60;;
6077;SDS011;3067;49.470;10.394;2023-09-19T04:40:13;4.07;;;1.67;;
6077;SDS011;3067;49.470;10.394;2023-09-19T04:42:42;2.40;;;2.20;;
6077;SDS011;3067;49.470;10.394;2023-09-19T04:45:09;2.33;;;1.70;;
6077;SDS011;3067;49.470;10.394;2023-09-19T04:47:37;3.10;;;1.77;;
6077;SDS011;3067;49.470;10.394;2023-09-19T04:50:06;3.50;;;2.20;;
6077;SDS011;3067;49.470;10.394;2023-09-19T04:52:38;6.23;;;2.50;;
6077;SDS011;3067;49.470;10.394;2023-09-19T04:55:09;3.03;;;1.80;;
6077;SDS011;3067;49.470;10.394;2023-09-19T04:57:42;3.37;;;1.60;;
6077;SDS011;3067;49.470;10.394;2023-09-19T05:00:11;1.90;;;1.80;;
6077;SDS011;3067;49.470;10.394;2023-09-19T05:02:40;2.20;;;2.00;;
6077;SDS011;3067;49.470;10.394;2023-09-19T05:05:08;1.97;;;1.77;;
6077;SDS011;3067;49.470;10.394;2023-09-19T05:07:36;2.20;;;1.90;;
6077;SDS011;3067;49.470;10.394;2023-09-19T05:10:05;2.40;;;1.70;;
6077;SDS011;3067;49.470;10.394;2023-09-19T05:12:35;1.70;;;1.70;;
6077;SDS011;3067;49.470;10.394;2023-09-19T05:15:02;2.93;;;1.60;;
6077;SDS011;3067;49.470;10.394;2023-09-19T05:17:30;1.80;;;1.70;;
6077;SDS011;3067;49.470;10.394;2023-09-19T05:19:57;12.53;;;2.77;;
6077;SDS011;3067;49.470;10.394;2023-09-19T05:22:26;2.40;;;1.60;;
6077;SDS011;3067;49.470;10.394;2023-09-19T05:24:54;3.37;;;1.90;;
6077;SDS011;3067;49.470;10.394;2023-09-19T05:27:21;7.70;;;1.83;;
6077;SDS011;3067;49.470;10.394;2023-09-19T05:29:49;1.80;;;1.50;;
6077;SDS011;3067;49.470;10.394;2023-09-19T05:32:18;4.83;;;1.93;;
6077;SDS011;3067;49.470;10.394;2023-09-19T05:34:45;2.87;;;2.00;;
6077;SDS011;3067;49.470;10.394;2023-09-19T05:37:12;1.80;;;1.70;;
6077;SDS011;3067;49.470;10.394;2023-09-19T05:39:40;2.30;;;2.20;;
6077;SDS011;3067;49.470;10.394;2023-09-19T05:42:07;2.00;;;2.00;;
6077;SDS011;3067;49.470;10.394;2023-09-19T05:44:34;3.80;;;2.50;;
6077;SDS011;3067;49.470;10.394;2023-09-19T05:47:03;5.27;;;2.43;;
6077;SDS011;3067;49.470;10.394;2023-09-19T05:49:34;2.50;;;2.30;;
6077;SDS011;3067;49.470;10.394;2023-09-19T05:52:03;2.57;;;2.43;;
6077;SDS011;3067;49.470;10.394;2023-09-19T05:54:31;3.23;;;2.23;;
6077;SDS011;3067;49.470;10.394;2023-09-19T05:56:59;3.87;;;2.30;;
6077;SDS011;3067;49.470;10.394;2023-09-19T05:59:26;5.20;;;3.00;;
6077;SDS011;3067;49.470;10.394;2023-09-19T06:01:53;2.63;;;2.43;;
6077;SDS011;3067;49.470;10.394;2023-09-19T06:04:22;5.43;;;2.50;;
6077;SDS011;3067;49.470;10.394;2023-09-19T06:06:50;2.70;;;2.50;;
6077;SDS011;3067;49.470;10.394;2023-09-19T06:09:17;2.33;;;2.20;;
6077;SDS011;3067;49.470;10.394;2023-09-19T06:11:45;2.77;;;2.30;;
6077;SDS011;3067;49.470;10.394;2023-09-19T06:14:12;2.60;;;2.50;;
6077;SDS011;3067;49.470;10.394;2023-09-19T06:16:39;3.13;;;2.40;;
6077;SDS011;3067;49.470;10.394;2023-09-19T06:19:08;3.43;;;2.40;;
6077;SDS011;3067;49.470;10.394;2023-09-19T06:21:36;7.00;;;2.70;;
6077;SDS011;3067;49.470;10.394;2023-09-19T06:24:04;5.17;;;2.60;;
6077;SDS011;3067;49.470;10.394;2023-09-19T06:26:31;5.23;;;2.37;;
6077;SDS011;3067;49.470;10.394;2023-09-19T06:28:58;3.73;;;2.10;;
6077;SDS011;3067;49.470;10.394;2023-09-19T06:31:26;5.33;;;2.10;;
6077;SDS011;3067;49.470;10.394;2023-09-19T06:33:53;3.73;;;2.27;;
6077;SDS011;3067;49.470;10.394;2023-09-19T06:36:20;5.07;;;2.50;;
6077;SDS011;3067;49.470;10.394;2023-09-19T06:38:48;2.57;;;2.33;;
6077;SDS011;3067;49.470;10.394;2023-09-19T06:41:16;3.73;;;2.10;;
6077;SDS011;3067;49.470;10.394;2023-09-19T06:43:43;2.27;;;2.17;;
6077;SDS011;3067;49.470;10.394;2023-09-19T06:46:10;3.27;;;2.00;;
6077;SDS011;3067;49.470;10.394;2023-09-19T06:48:38;2.57;;;2.37;;
6077;SDS011;3067;49.470;10.394;2023-09-19T06:51:05;2.47;;;1.93;;
6077;SDS011;3067;49.470;10.394;2023-09-19T06:53:35;4.17;;;2.10;;
6077;SDS011;3067;49.470;10.394;2023-09-19T06:56:03;2.23;;;2.00;;
6077;SDS011;3067;49.470;10.394;2023-09-19T06:58:31;2.10;;;2.00;;
6077;SDS011;3067;49.470;10.394;2023-09-19T07:00:58;6.30;;;2.37;;
6077;SDS011;3067;49.470;10.394;2023-09-19T07:03:25;2.40;;;2.20;;
6077;SDS011;3067;49.470;10.394;2023-09-19T07:05:53;5.07;;;2.20;;
6077;SDS011;3067;49.470;10.394;2023-09-19T07:08:21;2.27;;;2.17;;
6077;SDS011;3067;49.470;10.394;2023-09-19T07:10:48;3.80;;;1.97;;
6077;SDS011;3067;49.470;10.394;2023-09-19T07:13:20;5.03;;;2.30;;
6077;SDS011;3067;49.470;10.394;2023-09-19T07:15:47;3.67;;;2.07;;
6077;SDS011;3067;49.470;10.394;2023-09-19T07:18:15;4.23;;;1.90;;
6077;SDS011;3067;49.470;10.394;2023-09-19T07:20:43;3.03;;;1.87;;
6077;SDS011;3067;49.470;10.394;2023-09-19T07:23:14;3.23;;;2.10;;
6077;SDS011;3067;49.470;10.394;2023-09-19T07:25:41;3.10;;;1.97;;
6077;SDS011;3067;49.470;10.394;2023-09-19T07:28:08;2.40;;;2.10;;
6077;SDS011;3067;49.470;10.394;2023-09-19T07:30:37;1.90;;;1.80;;
6077;SDS011;3067;49.470;10.394;2023-09-19T07:33:05;2.27;;;2.13;;
6077;SDS011;3067;49.470;10.394;2023-09-19T07:35:34;3.00;;;2.20;;
6077;SDS011;3067;49.470;10.394;2023-09-19T07:38:01;2.07;;;1.93;;
6077;SDS011;3067;49.470;10.394;2023-09-19T07:40:28;2.43;;;2.13;;
6077;SDS011;3067;49.470;10.394;2023-09-19T07:42:55;5.13;;;2.17;;
6077;SDS011;3067;49.470;10.394;2023-09-19T07:45:26;1.80;;;1.70;;
6077;SDS011;3067;49.470;10.394;2023-09-19T07:47:56;2.00;;;1.87;;
6077;SDS011;3067;49.470;10.394;2023-09-19T07:50:25;1.90;;;1.80;;
6077;SDS011;3067;49.470;10.394;2023-09-19T07:52:53;3.10;;;1.90;;
6077;SDS011;3067;49.470;10.394;2023-09-19T07:55:21;2.00;;;1.90;;
6077;SDS011;3067;49.470;10.394;2023-09-19T07:57:50;1.80;;;1.70;;
6077;SDS011;3067;49.470;10.394;2023-09-19T08:00:18;4.50;;;1.87;;
6077;SDS011;3067;49.470;10.394;2023-09-19T08:02:45;1.60;;;1.50;;
6077;SDS011;3067;49.470;10.394;2023-09-19T08:05:14;2.23;;;2.10;;
6077;SDS011;3067;49.470;10.394;2023-09-19T08:07:42;3.67;;;2.30;;
6077;SDS011;3067;49.470;10.394;2023-09-19T08:10:10;6.60;;;2.50;;
6077;SDS011;3067;49.470;10.394;2023-09-19T08:12:38;6.23;;;2.10;;
6077;SDS011;3067;49.470;10.394;2023-09-19T08:15:11;2.23;;;2.00;;
6077;SDS011;3067;49.470;10.394;2023-09-19T08:17:39;5.03;;;2.23;;
6077;SDS011;3067;49.470;10.394;2023-09-19T08:20:07;1.80;;;1.70;;
6077;SDS011;3067;49.470;10.394;2023-09-19T08:22:43;1.80;;;1.70;;
6077;SDS011;3067;49.470;10.394;2023-09-19T08:25:13;1.87;;;1.73;;
6077;SDS011;3067;49.470;10.394;2023-09-19T08:27:42;12.10;;;1.60;;
6077;SDS011;3067;49.470;10.394;2023-09-19T08:30:12;2.40;;;1.30;;
6077;SDS011;3067;49.470;10.394;2023-09-19T08:32:41;3.30;;;1.50;;
6077;SDS011;3067;49.470;10.394;2023-09-19T08:35:08;2.20;;;1.50;;
6077;SDS011;3067;49.470;10.394;2023-09-19T08:37:36;1.73;;;1.53;;
6077;SDS011;3067;49.470;10.394;2023-09-19T08:40:05;1.47;;;1.37;;
6077;SDS011;3067;49.470;10.394;2023-09-19T08:42:46;9.20;;;1.57;;
6077;SDS011;3067;49.470;10.394;2023-09-19T08:45:15;1.70;;;1.60;;
6077;SDS011;3067;49.470;10.394;2023-09-19T08:47:45;1.87;;;1.50;;
6077;SDS011;3067;49.470;10.394;2023-09-19T08:50:16;6.73;;;1.90;;
6077;SDS011;3067;49.470;10.394;2023-09-19T08:52:50;8.50;;;1.60;;
6077;SDS011;3067;49.470;10.394;2023-09-19T08:55:22;2.80;;;1.40;;
6077;SDS011;3067;49.470;10.394;2023-09-19T08:57:56;8.90;;;1.60;;
6077;SDS011;3067;49.470;10.394;2023-09-19T09:00:27;4.20;;;1.40;;
6077;SDS011;3067;49.470;10.394;2023-09-19T09:02:55;2.30;;;1.70;;
6077;SDS011;3067;49.470;10.394;2023-09-19T09:05:23;2.57;;;1.43;;
6077;SDS011;3067;49.470;10.394;2023-09-19T09:07:51;1.63;;;1.30;;
6077;SDS011;3067;49.470;10.394;2023-09-19T09:10:21;2.43;;;1.70;;
6077;SDS011;3067;49.470;10.394;2023-09-19T09:12:48;2.80;;;1.57;;
6077;SDS011;3067;49.470;10.394;2023-09-19T09:15:19;4.40;;;2.00;;
6077;SDS011;3067;49.470;10.394;2023-09-19T09:17:47;1.90;;;1.70;;
6077;SDS011;3067;49.470;10.394;2023-09-19T09:20:15;6.97;;;1.80;;
6077;SDS011;3067;49.470;10.394;2023-09-19T09:22:50;3.93;;;2.10;;
6077;SDS011;3067;49.470;10.394;2023-09-19T09:25:18;2.07;;;1.70;;
6077;SDS011;3067;49.470;10.394;2023-09-19T09:27:58;3.07;;;1.70;;
6077;SDS011;3067;49.470;10.394;2023-09-19T09:30:33;2.73;;;1.83;;
6077;SDS011;3067;49.470;10.394;2023-09-19T09:33:08;1.80;;;1.70;;
6077;SDS011;3067;49.470;10.394;2023-09-19T09:35:37;2.40;;;2.07;;
6077;SDS011;3067;49.470;10.394;2023-09-19T09:38:13;2.97;;;1.90;;
6077;SDS011;3067;49.470;10.394;2023-09-19T09:40:49;2.43;;;1.97;;
6077;SDS011;3067;49.470;10.394;2023-09-19T09:43:25;3.30;;;2.20;;
6077;SDS011;3067;49.470;10.394;2023-09-19T09:46:06;2.17;;;2.07;;
6077;SDS011;3067;49.470;10.394;2023-09-19T09:48:58;2.57;;;2.43;;
6077;SDS011;3067;49.470;10.394;2023-09-19T09:51:59;2.60;;;2.40;;
6077;SDS011;3067;49.470;10.394;2023-09-19T09:54:30;3.20;;;2.17;;
6077;SDS011;3067;49.470;10.394;2023-09-19T09:57:05;2.47;;;2.27;;
6077;SDS011;3067;49.470;10.394;2023-09-19T09:59:48;3.43;;;2.60;;
6077;SDS011;3067;49.470;10.394;2023-09-19T10:02:18;2.40;;;2.30;;
6077;SDS011;3067;49.470;10.394;2023-09-19T10:04:51;4.43;;;2.33;;
6077;SDS011;3067;49.470;10.394;2023-09-19T10:07:24;3.37;;;2.03;;
6077;SDS011;3067;49.470;10.394;2023-09-19T10:09:56;6.77;;;2.90;;
6077;SDS011;3067;49.470;10.394;2023-09-19T10:12:32;4.97;;;2.20;;
6077;SDS011;3067;49.470;10.394;2023-09-19T10:15:00;3.07;;;1.83;;
6077;SDS011;3067;49.470;10.394;2023-09-19T10:17:32;3.07;;;2.13;;
6077;SDS011;3067;49.470;10.394;2023-09-19T10:20:02;18.77;;;1.73;;
6077;SDS011;3067;49.470;10.394;2023-09-19T10:22:43;2.20;;;2.00;;
6077;SDS011;3067;49.470;10.394;2023-09-19T10:25:22;1.70;;;1.60;;
6077;SDS011;3067;49.470;10.394;2023-09-19T10:27:52;3.37;;;1.70;;
6077;SDS011;3067;49.470;10.394;2023-09-19T10:30:22;1.63;;;1.50;;
6077;SDS011;3067;49.470;10.394;2023-09-19T10:32:53;2.20;;;1.57;;
6077;SDS011;3067;49.470;10.394;2023-09-19T10:35:26;4.43;;;1.90;;
6077;SDS011;3067;49.470;10.394;2023-09-19T10:37:54;1.80;;;1.70;;
6077;SDS011;3067;49.470;10.394;2023-09-19T10:40:26;2.03;;;1.50;;
6077;SDS011;3067;49.470;10.394;2023-09-19T10:43:00;3.60;;;1.60;;
6077;SDS011;3067;49.470;10.394;2023-09-19T10:45:32;3.63;;;1.83;;
6077;SDS011;3067;49.470;10.394;2023-09-19T10:48:00;3.43;;;1.40;;
6077;SDS011;3067;49.470;10.394;2023-09-19T10:50:30;5.37;;;1.40;;
6077;SDS011;3067;49.470;10.394;2023-09-19T10:53:02;1.53;;;1.43;;
6077;SDS011;3067;49.470;10.394;2023-09-19T10:55:33;2.47;;;1.37;;
6077;SDS011;3067;49.470;10.394;2023-09-19T10:58:03;2.03;;;1.17;;
6077;SDS011;3067;49.470;10.394;2023-09-19T11:00:51;2.23;;;1.50;;
6077;SDS011;3067;49.470;10.394;2023-09-19T11:03:20;2.53;;;1.20;;
6077;SDS011;3067;49.470;10.394;2023-09-19T11:06:01;3.23;;;1.40;;
6077;SDS011;3067;49.470;10.394;2023-09-19T11:11:39;3.53;;;1.30;;
6077;SDS011;3067;49.470;10.394;2023-09-19T11:14:15;5.60;;;1.67;;
6077;SDS011;3067;49.470;10.394;2023-09-19T11:25:49;3.83;;;1.20;;
6077;SDS011;3067;49.470;10.394;2023-09-19T11:28:31;2.73;;;1.20;;
6077;SDS011;3067;49.470;10.394;2023-09-19T11:34:38;1.97;;;1.40;;
6077;SDS011;3067;49.470;10.394;2023-09-19T11:40:36;1.30;;;1.20;;
6077;SDS011;3067;49.470;10.394;2023-09-19T11:46:01;1.63;;;1.10;;
6077;SDS011;3067;49.470;10.394;2023-09-19T11:48:31;1.57;;;1.30;;
6077;SDS011;3067;49.470;10.394;2023-09-19T11:51:01;1.30;;;1.20;;
6077;SDS011;3067;49.470;10.394;2023-09-19T11:53:47;5.90;;;1.37;;
6077;SDS011;3067;49.470;10.394;2023-09-19T11:56:15;3.37;;;1.60;;
6077;SDS011;3067;49.470;10.394;2023-09-19T11:58:44;1.53;;;1.40;;
6077;SDS011;3067;49.470;10.394;2023-09-19T12:01:14;2.93;;;1.50;;
6077;SDS011;3067;49.470;10.394;2023-09-19T12:03:47;1.73;;;1.20;;
6077;SDS011;3067;49.470;10.394;2023-09-19T12:06:23;5.23;;;1.40;;
6077;SDS011;3067;49.470;10.394;2023-09-19T12:08:52;2.40;;;1.47;;
6077;SDS011;3067;49.470;10.394;2023-09-19T12:11:21;7.80;;;1.40;;
6077;SDS011;3067;49.470;10.394;2023-09-19T12:13:49;2.87;;;1.20;;
6077;SDS011;3067;49.470;10.394;2023-09-19T12:16:18;3.97;;;1.57;;
6077;SDS011;3067;49.470;10.394;2023-09-19T12:18:48;1.50;;;1.40;;
6077;SDS011;3067;49.470;10.394;2023-09-19T12:21:27;1.83;;;1.40;;
6077;SDS011;3067;49.470;10.394;2023-09-19T12:24:03;1.97;;;1.70;;
6077;SDS011;3067;49.470;10.394;2023-09-19T12:26:40;3.00;;;1.30;;
6077;SDS011;3067;49.470;10.394;2023-09-19T12:29:12;3.20;;;1.50;;
6077;SDS011;3067;49.470;10.394;2023-09-19T12:31:49;1.57;;;1.30;;
6077;SDS011;3067;49.470;10.394;2023-09-19T12:34:22;3.10;;;1.40;;
6077;SDS011;3067;49.470;10.394;2023-09-19T12:37:04;1.90;;;1.70;;
6077;SDS011;3067;49.470;10.394;2023-09-19T12:39:36;5.23;;;1.30;;
6077;SDS011;3067;49.470;10.394;2023-09-19T12:42:06;2.47;;;1.80;;
6077;SDS011;3067;49.470;10.394;2023-09-19T12:44:35;2.73;;;1.20;;
6077;SDS011;3067;49.470;10.394;2023-09-19T12:47:10;2.67;;;1.63;;
6077;SDS011;3067;49.470;10.394;2023-09-19T12:52:39;1.53;;;1.37;;
6077;SDS011;3067;49.470;10.394;2023-09-19T12:55:07;3.63;;;1.40;;
6077;SDS011;3067;49.470;10.394;2023-09-19T12:57:54;2.20;;;1.50;;
6077;SDS011;3067;49.470;10.394;2023-09-19T13:00:30;1.50;;;1.43;;
6077;SDS011;3067;49.470;10.394;2023-09-19T13:03:18;1.80;;;1.30;;
6077;SDS011;3067;49.470;10.394;2023-09-19T13:05:54;1.40;;;1.30;;
6077;SDS011;3067;49.470;10.394;2023-09-19T13:08:27;1.30;;;1.20;;
6077;SDS011;3067;49.470;10.394;2023-09-19T13:11:03;1.40;;;1.30;;
6077;SDS011;3067;49.470;10.394;2023-09-19T13:13:32;2.23;;;1.30;;
6077;SDS011;3067;49.470;10.394;2023-09-19T13:16:01;2.50;;;1.00;;
6077;SDS011;3067;49.470;10.394;2023-09-19T13:18:30;1.33;;;1.20;;
6077;SDS011;3067;49.470;10.394;2023-09-19T13:21:07;2.03;;;1.13;;
6077;SDS011;3067;49.470;10.394;2023-09-19T13:23:38;3.33;;;1.00;;
6077;SDS011;3067;49.470;10.394;2023-09-19T13:26:07;2.40;;;1.13;;
6077;SDS011;3067;49.470;10.394;2023-09-19T13:28:34;0.90;;;0.90;;
6077;SDS011;3067;49.470;10.394;2023-09-19T13:31:01;2.80;;;1.33;;
6077;SDS011;3067;49.470;10.394;2023-09-19T13:33:28;2.47;;;1.10;;
6077;SDS011;3067;49.470;10.394;2023-09-19T13:35:55;1.20;;;1.10;;
6077;SDS011;3067;49.470;10.394;2023-09-19T13:38:23;1.60;;;1.27;;
6077;SDS011;3067;49.470;10.394;2023-09-19T13:40:51;1.10;;;1.00;;
6077;SDS011;3067;49.470;10.394;2023-09-19T13:43:18;1.20;;;1.10;;
6077;SDS011;3067;49.470;10.394;2023-09-19T13:45:47;2.93;;;1.07;;
6077;SDS011;3067;49.470;10.394;2023-09-19T13:48:15;1.03;;;0.80;;
6077;SDS011;3067;49.470;10.394;2023-09-19T13:50:47;1.10;;;1.00;;
6077;SDS011;3067;49.470;10.394;2023-09-19T13:53:15;5.50;;;1.37;;
6077;SDS011;3067;49.470;10.394;2023-09-19T13:55:43;3.30;;;0.90;;
6077;SDS011;3067;49.470;10.394;2023-09-19T13:58:11;1.30;;;1.10;;
6077;SDS011;3067;49.470;10.394;2023-09-19T14:00:38;3.20;;;1.07;;
6077;SDS011;3067;49.470;10.394;2023-09-19T14:03:05;1.97;;;1.10;;
6077;SDS011;3067;49.470;10.394;2023-09-19T14:05:32;3.03;;;1.10;;
6077;SDS011;3067;49.470;10.394;2023-09-19T14:08:00;1.10;;;0.90;;
6077;SDS011;3067;49.470;10.394;2023-09-19T14:10:28;1.20;;;1.00;;
6077;SDS011;3067;49.470;10.394;2023-09-19T14:12:56;1.00;;;0.97;;
6077;SDS011;3067;49.470;10.394;2023-09-19T14:15:26;1.10;;;1.00;;
6077;SDS011;3067;49.470;10.394;2023-09-19T14:17:56;2.80;;;1.10;;
6077;SDS011;3067;49.470;10.394;2023-09-19T14:20:24;4.13;;;1.30;;
6077;SDS011;3067;49.470;10.394;2023-09-19T14:22:52;1.93;;;1.10;;
6077;SDS011;3067;49.470;10.394;2023-09-19T14:25:20;8.53;;;1.40;;
6077;SDS011;3067;49.470;10.394;2023-09-19T14:27:47;7.90;;;1.73;;
6077;SDS011;3067;49.470;10.394;2023-09-19T14:30:14;1.30;;;1.20;;
6077;SDS011;3067;49.470;10.394;2023-09-19T14:32:43;1.20;;;1.10;;
6077;SDS011;3067;49.470;10.394;2023-09-19T14:35:10;1.10;;;0.90;;
6077;SDS011;3067;49.470;10.394;2023-09-19T14:37:40;3.70;;;1.10;;
6077;SDS011;3067;49.470;10.394;2023-09-19T14:40:07;2.33;;;1.00;;
6077;SDS011;3067;49.470;10.394;2023-09-19T14:42:38;2.07;;;1.10;;
6077;SDS011;3067;49.470;10.394;2023-09-19T14:45:06;1.97;;;1.17;;
6077;SDS011;3067;49.470;10.394;2023-09-19T14:47:34;2.90;;;1.13;;
6077;SDS011;3067;49.470;10.394;2023-09-19T14:50:04;1.30;;;1.10;;
6077;SDS011;3067;49.470;10.394;2023-09-19T14:52:32;1.20;;;1.10;;
6077;SDS011;3067;49.470;10.394;2023-09-19T14:55:01;0.97;;;0.97;;
6077;SDS011;3067;49.470;10.394;2023-09-19T14:57:29;1.77;;;1.00;;
6077;SDS011;3067;49.470;10.394;2023-09-19T14:59:57;1.00;;;1.00;;
6077;SDS011;3067;49.470;10.394;2023-09-19T15:02:24;3.03;;;1.10;;
6077;SDS011;3067;49.470;10.394;2023-09-19T15:04:52;1.53;;;1.20;;
6077;SDS011;3067;49.470;10.394;2023-09-19T15:07:20;1.70;;;1.10;;
6077;SDS011;3067;49.470;10.394;2023-09-19T15:09:47;2.00;;;0.93;;
6077;SDS011;3067;49.470;10.394;2023-09-19T15:12:14;1.67;;;0.97;;
6077;SDS011;3067;49.470;10.394;2023-09-19T15:14:42;1.37;;;1.17;;
6077;SDS011;3067;49.470;10.394;2023-09-19T15:17:09;1.07;;;1.07;;
6077;SDS011;3067;49.470;10.394;2023-09-19T15:19:36;1.13;;;1.13;;
6077;SDS011;3067;49.470;10.394;2023-09-19T15:22:04;2.50;;;1.30;;
6077;SDS011;3067;49.470;10.394;2023-09-19T15:24:33;4.57;;;1.30;;
6077;SDS011;3067;49.470;10.394;2023-09-19T15:27:00;3.47;;;1.20;;
6077;SDS011;3067;49.470;10.394;2023-09-19T15:29:27;3.27;;;1.60;;
6077;SDS011;3067;49.470;10.394;2023-09-19T15:31:55;2.67;;;1.60;;
6077;SDS011;3067;49.470;10.394;2023-09-19T15:34:27;6.00;;;1.10;;
6077;SDS011;3067;49.470;10.394;2023-09-19T15:36:54;2.50;;;1.10;;
6077;SDS011;3067;49.470;10.394;2023-09-19T15:39:21;2.27;;;1.00;;
6077;SDS011;3067;49.470;10.394;2023-09-19T15:41:50;3.87;;;1.10;;